x

9449880 - Friday Harbor, Wa (frdw1) Weather Station

8:30 - Sat 28th May 2016 All times are PDT. -7 hours from GMT.

  • Wind
    8mph, 14mph gusts
  • Sea Temp 51°f
  • Ar Temp 50°f
  • Sea Pressure 1016.5mb
  • 9449880 - Friday Harbor, Wa
  • 9449880 - Friday Harbor, Wa

More Historic Weather Station data

Upgrade to MSW Pro to gain access to the past 30 days of data for over 8000 Wavebouys and Weather Stations around the globe.

Join Pro

Comparision Forecast

View Surf forecast
   
Sáb 05/28 8:30 8 14 mph 1016.5mb 51f 50f
8:24 8 16 mph 1016.6mb 51f 50f
8:18 9 15 mph 1016.5mb 51f 50f
8:12 8 14 mph 1016.5mb 51f 50f
8:06 7 11 mph 1016.6mb 51f 50f
8:00 9 14 mph 1016.5mb 51f 50f
7:36 9 13 mph 1016.6mb 51f 50f
7:30 8 13 mph 1016.6mb 51f 49f
7:24 8 14 mph 1016.7mb 51f 49f
7:18 10 14 mph 1016.7mb 51f 49f
7:12 8 13 mph 1016.8mb 51f 49f
7:06 7 13 mph 1016.9mb 51f 49f
7:00 10 15 mph 1017.1mb 51f 49f
6:36 6 10 mph 1017.2mb 51f 49f
6:30 8 10 mph 1017.2mb 51f 49f
6:24 7 10 mph 1017.3mb 51f 49f
6:18 7 9 mph 1017.3mb 51f 49f
6:12 7 11 mph 1017.4mb 51f 49f
6:06 8 10 mph 1017.4mb 51f 48f
6:00 6 8 mph 1017.4mb 51f 48f
5:36 8 11 mph 1017.5mb 51f 48f
5:30 6 8 mph 1017.5mb 51f 49f
5:24 7 9 mph 1017.5mb 51f 48f
5:18 7 10 mph 1017.6mb 51f 49f
5:12 6 9 mph 1017.6mb 51f 48f
5:06 6 8 mph 1017.6mb 51f 48f
5:00 8 11 mph 1017.6mb 51f 48f
4:36 6 7 mph 1017.9mb 51f 48f
4:30 5 6 mph 1018mb 51f 48f
4:24 5 6 mph 1018.1mb 51f 48f
4:18 3 6 mph 1018.1mb 51f 48f
4:12 5 6 mph 1018.2mb 51f 48f
4:06 3
mph
1018.2mb 51f 48f
4:00 3 5 mph 1018.3mb 51f 48f
3:36 2
mph
1018.4mb 51f 48f
3:30 1 2 mph 1018.5mb 51f 48f
3:24  -  2 mph 1018.5mb 51f 48f
3:18 2
mph
1018.5mb 51f 48f
3:12 1 2 mph 1018.6mb 51f 48f
3:06  -  3 mph 1018.7mb 50f 48f
3:00 2 5 mph 1018.7mb 50f 48f
2:36 5 6 mph 1018.9mb 50f 48f
2:30 5 7 mph 1018.9mb 50f 48f
2:24 5 8 mph 1019mb 50f 49f
2:18 6 9 mph 1019mb 50f 49f
2:12 8 9 mph 1019.1mb 50f 49f
2:06 8 11 mph 1019.1mb 50f 49f
2:00 10 14 mph 1019.2mb 50f 49f
1:36 10 14 mph 1019.3mb 50f 50f
1:30 10 14 mph 1019.3mb 50f 50f
1:24 10 11 mph 1019.3mb 50f 50f
1:18 8 10 mph 1019.3mb 50f 50f
1:12 6 8 mph 1019.3mb 50f 50f
1:06 7 10 mph 1019.3mb 50f 50f
1:00 8 11 mph 1019.3mb 50f 50f
12:36 10 15 mph 1019.3mb 50f 51f
12:30 13 17 mph 1019.3mb 50f 51f
12:24 15 18 mph 1019.3mb 50f 50f
12:18 15 20 mph 1019.3mb 50f 50f
12:12 14 18 mph 1019.3mb 50f 50f
12:06 11 14 mph 1019.3mb 50f 50f
12:00 9 13 mph 1019.4mb 50f 50f
Sex 05/27 11:36 16 20 mph 1019.4mb 50f 51f
11:30 14 17 mph 1019.4mb 50f 51f
11:24 13 16 mph 1019.4mb 50f 51f
11:18 14 21 mph 1019.5mb 50f 51f
11:12 13 15 mph 1019.5mb 50f 51f
11:06 13 16 mph 1019.5mb 50f 51f
11:00 11 16 mph 1019.5mb 50f 52f
10:36 11 16 mph 1019.6mb 50f 52f
10:30 9 11 mph 1019.6mb 50f 52f
10:24 8 11 mph 1019.5mb 50f 52f
10:18 9 13 mph 1019.6mb 50f 51f
10:12 11 15 mph 1019.6mb 50f 52f
10:06 13 16 mph 1019.7mb 50f 52f
10:00 13 17 mph 1019.7mb 50f 52f
9:36 13 15 mph 1019.5mb 50f 52f
9:30 6 11 mph 1019.4mb 50f 52f
9:24 8 16 mph 1019.4mb 50f 53f
9:18 10 14 mph 1019.4mb 50f 52f
9:12 11 14 mph 1019.4mb 50f 53f
9:06 10 14 mph 1019.4mb 50f 53f
9:00 9 14 mph 1019.4mb 50f 53f
8:36 11 18 mph 1019.3mb 50f 53f
8:30 13 18 mph 1019.3mb 50f 54f
8:24 15 17 mph 1019.3mb 50f 54f
8:18 14 18 mph 1019.3mb 50f 54f
8:12 14 20 mph 1019.3mb 50f 54f
8:06 14 18 mph 1019.3mb 50f 54f
8:00 14 20 mph 1019.4mb 50f 54f
7:36 20 23 mph 1019.5mb - -
7:30 17 22 mph 1019.4mb - -
7:24 17 23 mph 1019.4mb - -
7:18 15 20 mph 1019.4mb - -
7:12 15 21 mph 1019.3mb - -
7:06 15 20 mph 1019.3mb - -
7:00 17 24 mph 1019.3mb - -
6:36  -  mph 1019.3mb - 56f
6:30  -  mph 1019.3mb - 56f
6:24  -  mph 1019.3mb - 56f
6:18  -  mph 1019.2mb - 56f
6:12  -  mph 1019.2mb - 56f
6:06  -  mph 1019.2mb - 56f
6:00  -  mph 1019.2mb - 57f
4:36  -  mph 1019.4mb 51f 58f
4:30  -  mph 1019.4mb 51f 58f
4:24  -  mph 1019.4mb 51f 58f
4:18  -  mph 1019.4mb 51f 58f
4:12  -  mph 1019.4mb 51f 59f
4:06  -  mph 1019.5mb 51f 59f
4:00  -  mph 1019.5mb 51f 58f
3:36 17 21 mph - 51f 58f
3:30 8 15 mph - 51f 60f
3:24 11 20 mph - 51f 59f
3:18 16 21 mph - 51f 58f
3:12 14 22 mph - 51f 59f
3:06 18 22 mph - 51f 58f
3:00 20 24 mph - 51f 58f
2:36 21 24 mph 1019.7mb - -
2:30 18 23 mph 1019.7mb - -
2:24 21 24 mph 1019.6mb - -
2:18 17 22 mph 1019.6mb - -
2:12 17 22 mph 1019.6mb - -
2:06 14 20 mph 1019.7mb - -
2:00 14 21 mph 1019.8mb - -
1:36 22 25 mph 1020mb 51f 56f
1:30 21 25 mph 1020mb 51f 56f
1:24 18 26 mph 1020mb 51f 56f
1:18 18 22 mph 1019.9mb 51f 56f
1:12 20 29 mph 1020mb 51f 56f
1:06 25 30 mph 1020mb 51f 55f
1:00 21 25 mph 1020.1mb 51f 56f
12:36 20 25 mph 1020.1mb 51f 56f
12:30 15 22 mph 1020.1mb 51f 56f
12:24 18 23 mph 1020.2mb 51f 55f
12:18 16 24 mph 1020.2mb 51f 56f
12:12 17 23 mph 1020.2mb 51f 55f
12:06 15 21 mph 1020.2mb 51f 55f
12:00 20 25 mph 1020.3mb 51f 55f
11:36 15 18 mph 1020.3mb 51f 54f
11:30 15 21 mph 1020.3mb 51f 54f
11:24 16 22 mph 1020.3mb 50f 54f
11:18 15 20 mph 1020.3mb 50f 54f
11:12 13 17 mph 1020.3mb 50f 54f
11:06 9 21 mph 1020.3mb 51f 54f
11:00 14 18 mph 1020.3mb 51f 53f
10:36 17 21 mph 1020.4mb 51f 52f
10:30 14 18 mph 1020.4mb 51f 53f
10:24 15 20 mph 1020.4mb 51f 52f
10:18 15 18 mph 1020.4mb 51f 52f
10:12 14 20 mph 1020.4mb 50f 52f
10:06 15 20 mph 1020.4mb 50f 52f
10:00 15 21 mph 1020.4mb 51f 52f
9:36 16 20 mph 1020.3mb 50f 52f
9:30 13 15 mph 1020.4mb 50f 52f
9:24 14 16 mph 1020.4mb 50f 52f
9:18 13 18 mph 1020.3mb 50f 52f
9:12 13 18 mph 1020.3mb 50f 52f
9:06 11 18 mph 1020.4mb 50f 52f
9:00 15 20 mph 1020.4mb 50f 52f
8:54 14 17 mph 1020.4mb 50f 52f
8:48 13 17 mph 1020.3mb 50f 52f
8:36 10 15 mph 1020.4mb 50f 51f
8:30 10 16 mph 1020.4mb 50f 51f
8:24 11 16 mph 1020.4mb 50f 51f
8:18 9 14 mph 1020.4mb 50f 51f
8:12 9 14 mph 1020.4mb 50f 51f
8:06 11 14 mph 1020.4mb 50f 51f
8:00 10 11 mph 1020.4mb 50f 50f
7:54 8 10 mph 1020.3mb 50f 50f
7:48 8 10 mph 1020.4mb 50f 50f
7:36 7 10 mph 1020.4mb 50f 50f
7:30 8 9 mph 1020.3mb 50f 50f
7:24 8 9 mph 1020.3mb 50f 50f
7:18 7 9 mph 1020.2mb 50f 50f
7:12 7 9 mph 1020.2mb 50f 50f
7:06 6 11 mph 1020.2mb 50f 50f
7:00 8 10 mph 1020.1mb 50f 50f
6:54 7 9 mph 1020.1mb 50f 50f
6:48 6 13 mph 1020.1mb 50f 50f
6:36 8 9 mph 1020.1mb 50f 49f
6:30 7 11 mph 1020.1mb 50f 49f
6:24 9 11 mph 1020mb 50f 49f
6:18 8 13 mph 1020mb 50f 49f
6:12 11 14 mph 1020mb 50f 49f
6:06 10 13 mph 1019.9mb 50f 49f
6:00 9 13 mph 1019.8mb 50f 49f
5:36 10 13 mph 1019.7mb 50f 49f
5:30 10 15 mph 1019.7mb 50f 49f
5:24 9 14 mph 1019.7mb 50f 49f
5:18 9 13 mph 1019.7mb 50f 49f
5:12 6 10 mph 1019.7mb 50f 49f
5:06 8 10 mph 1019.7mb 50f 49f
5:00 8 10 mph 1019.7mb 50f 49f
4:54 6 8 mph 1019.7mb 50f 49f
4:48 5 7 mph 1019.7mb 50f 49f
4:36 2 6 mph 1019.5mb 50f 49f
4:30 6 9 mph 1019.5mb 50f 49f
4:24 8 13 mph 1019.5mb 50f 49f
4:18 8 13 mph 1019.5mb 50f 49f
4:12 9 15 mph 1019.5mb 50f 50f
4:06 11 17 mph 1019.5mb 50f 50f
4:00 11 14 mph 1019.6mb 50f 50f
3:54 10 14 mph 1019.6mb 50f 50f
3:48 9 14 mph 1019.7mb 50f 50f
3:36 10 14 mph 1019.7mb 50f 50f
3:30 10 14 mph 1019.7mb 50f 50f
3:24 11 15 mph 1019.8mb 50f 50f
3:18 11 14 mph 1019.8mb 50f 50f
3:12 11 14 mph 1019.7mb 50f 50f
3:06 13 17 mph 1019.7mb 50f 50f
3:00 15 18 mph 1019.7mb 50f 50f
2:54 14 16 mph 1019.7mb 50f 50f
2:48 14 16 mph 1019.7mb 50f 50f
2:36 15 18 mph 1019.6mb 50f 50f
2:30 14 16 mph 1019.6mb 50f 50f
2:24 15 18 mph 1019.5mb 50f 50f
2:18 16 18 mph 1019.5mb 50f 50f
2:12 16 18 mph 1019.6mb 50f 50f
2:06 15 20 mph 1019.5mb 50f 50f
2:00 14 18 mph 1019.6mb 50f 50f
1:54 14 18 mph 1019.6mb 50f 50f
1:48 15 22 mph 1019.6mb 50f 50f
1:36 15 18 mph 1019.6mb 50f 50f
1:30 15 20 mph 1019.7mb 50f 50f
1:24 14 17 mph 1019.7mb 50f 50f
1:18 15 18 mph 1019.7mb 50f 50f
1:12 16 18 mph 1019.7mb 50f 50f
1:06 15 20 mph 1019.7mb 50f 50f
1:00 15 18 mph 1019.7mb 50f 50f
12:54 13 15 mph 1019.8mb 50f 50f
12:48 10 13 mph 1019.8mb 50f 50f
12:36 11 16 mph 1019.8mb 50f 50f
12:30 10 11 mph 1019.9mb 50f 50f
12:24 9 11 mph 1020mb 50f 50f
12:18 9 11 mph 1020mb 50f 50f
12:12 10 14 mph 1020mb 50f 50f
12:06 11 14 mph 1020.1mb 50f 50f
12:00 10 11 mph 1020.2mb 50f 50f
Qui 05/26 11:54 9 13 mph 1020.3mb 50f 50f
11:48 9 13 mph 1020.3mb 50f 50f
11:36 10 13 mph 1020.4mb 50f 50f
11:30 10 13 mph 1020.4mb 50f 50f
11:24 8 11 mph 1020.5mb 50f 50f
11:18 8 10 mph 1020.5mb 50f 51f
11:12 8 10 mph 1020.5mb 50f 51f
11:06 7 11 mph 1020.5mb 50f 51f
11:00 10 13 mph 1020.5mb 50f 51f
10:54 11 15 mph 1020.5mb 50f 51f
10:48 14 16 mph 1020.5mb 50f 51f
10:36 14 18 mph 1020.5mb 50f 51f
10:30 15 17 mph 1020.5mb 50f 51f
10:24 14 18 mph 1020.4mb 50f 51f
10:18 13 14 mph 1020.4mb 50f 51f
10:12 11 15 mph 1020.4mb 50f 51f
10:06 10 13 mph 1020.4mb 50f 51f
10:00 9 13 mph 1020.4mb 50f 51f
9:54 9 11 mph 1020.3mb 50f 51f
9:48 11 16 mph 1020.3mb 50f 51f
9:36 15 18 mph 1020mb 50f 52f
9:30 14 22 mph 1019.9mb 50f 52f
9:24 17 22 mph 1019.8mb 50f 52f
9:18 13 21 mph 1019.8mb 50f 52f
9:12 14 20 mph 1019.7mb 50f 52f
9:06 15 21 mph 1019.7mb 50f 52f
9:00 16 21 mph 1019.6mb 50f 53f
8:54 10 15 mph 1019.7mb 50f 53f
8:48 15 20 mph 1019.7mb 50f 53f
8:36 14 25 mph 1019.6mb 50f 53f
8:30 16 21 mph 1019.5mb 50f 53f
8:24 15 22 mph 1019.4mb 50f 53f
8:18 17 23 mph 1019.2mb 50f 53f
8:12 18 26 mph 1019.2mb 50f 54f
8:06 20 30 mph 1019.2mb 50f 54f
8:00 16 26 mph 1019.1mb 50f 54f
7:54 17 23 mph 1019.1mb 50f 54f
7:48 16 25 mph 1019mb 50f 54f
7:36  -  mph 1019mb - -
7:30  -  mph 1019mb - -
7:24  -  mph 1019.1mb - -
7:18  -  mph 1019.1mb - -
7:12  -  mph 1019.1mb - -
7:06  -  mph 1019mb - -
7:00  -  mph 1019.1mb - -
6:54  -  mph 1019.1mb - -
6:48  -  mph 1019.2mb - -
6:36 20 28 mph 1019.4mb 50f -
6:30 22 28 mph 1019.4mb 50f -
6:24 20 25 mph 1019.4mb 50f -
6:18 18 24 mph 1019.4mb 50f -
6:12 16 21 mph 1019.4mb 50f -
6:06 14 22 mph 1019.5mb 50f -
6:00 16 23 mph 1019.6mb 51f -
5:54 15 26 mph 1019.7mb 51f -
5:48 18 22 mph 1019.8mb 51f -
5:36 14 21 mph 1019.9mb 51f 56f
5:30 13 23 mph 1019.9mb 51f 56f
5:24 20 29 mph 1019.9mb 51f 56f
5:18 18 26 mph 1019.9mb 51f 56f
5:12 17 28 mph 1020mb 51f 57f
5:06 21 28 mph 1019.9mb 51f 57f
5:00 16 22 mph 1020mb 51f 57f
4:54 15 22 mph 1020.1mb 51f 57f
4:48 17 22 mph 1020.1mb 51f 57f
4:36 14 22 mph 1020.1mb - -
4:30 17 22 mph 1020.1mb - -
4:24 15 24 mph 1020.1mb - -
4:18 13 21 mph 1020.1mb - -
4:12 20 24 mph 1020.2mb - -
4:06 18 22 mph 1020.2mb - -
4:00 20 29 mph 1020.2mb - -
3:54 21 25 mph 1020.1mb - -
3:48 18 25 mph 1020.2mb - -
3:36  -  mph 1020.2mb 51f -
3:30  -  mph 1020.3mb 51f -
3:24  -  mph 1020.3mb 51f -
3:18  -  mph 1020.4mb 51f -
3:12  -  mph 1020.4mb 51f -
3:06  -  mph 1020.4mb 51f -
3:00  -  mph 1020.4mb 51f -
2:54  -  mph 1020.5mb 51f -
2:48  -  mph 1020.6mb 51f -
2:36 14 17 mph 1020.7mb 51f 56f
2:30 14 18 mph 1020.7mb 51f 56f
2:24 13 16 mph 1020.8mb 51f 55f
2:18 15 21 mph 1020.8mb 51f 55f
2:12 17 22 mph 1021mb 51f 55f
2:06 20 22 mph 1021.1mb 51f 55f
2:00 11 15 mph 1021mb 51f 56f
1:54 9 17 mph 1020.9mb 51f 56f
1:48 11 16 mph 1021mb 51f 56f
1:36 7 11 mph 1021.2mb 51f 55f
1:30 9 15 mph 1021.3mb 51f 55f
1:24 9 14 mph 1021.3mb 51f 55f
1:18 7 14 mph 1021.3mb 51f 55f
1:12 8 13 mph 1021.3mb 51f 55f
1:06 8 15 mph 1021.4mb 51f 54f
1:00 8 13 mph 1021.4mb 51f 54f
12:54 7 11 mph 1021.5mb 51f 53f
12:48 6 13 mph 1021.5mb 51f 53f
12:36 8 14 mph 1021.6mb 51f 53f
12:30 8 13 mph 1021.6mb 51f 53f
12:24 7 13 mph 1021.6mb 51f 53f
12:18 7 14 mph 1021.7mb 51f 53f
12:12 6 13 mph 1021.7mb 51f 53f
12:06 7 13 mph 1021.7mb 51f 53f
12:00 7 14 mph 1021.8mb 51f 53f
11:54 10 15 mph 1021.8mb 51f 52f
11:48 8 14 mph 1021.8mb 51f 52f
11:36 8 13 mph 1021.8mb 51f 52f
11:30 13 17 mph 1021.8mb 51f 52f
11:24 10 15 mph 1021.8mb 51f 52f
11:18 8 16 mph 1021.8mb 51f 52f
11:12 13 20 mph 1021.9mb 51f 52f
11:06 10 17 mph 1022mb 51f 52f
11:00 11 16 mph 1021.9mb 51f 52f
10:54 11 16 mph 1021.9mb 51f 52f
10:48 11 16 mph 1022mb 51f 52f
10:36 13 15 mph 1021.9mb 51f 52f
10:30 10 14 mph 1021.8mb 51f 52f
10:24 11 14 mph 1021.8mb 51f 52f
10:18 8 13 mph 1021.8mb 51f 52f
10:12 9 16 mph 1021.8mb 51f 52f
10:06 10 14 mph 1021.8mb 51f 52f
10:00 9 14 mph 1021.8mb 51f 52f
9:54 10 15 mph 1021.9mb 51f 52f
9:48 11 14 mph 1021.9mb 51f 52f
9:36 11 15 mph 1021.9mb 51f 52f
9:30 11 15 mph 1021.9mb 51f 52f
9:24 11 14 mph 1021.9mb 51f 51f
9:18 11 14 mph 1021.9mb 51f 51f
9:12 11 14 mph 1021.9mb 51f 51f
9:06 10 15 mph 1021.9mb 51f 51f
9:00 13 16 mph 1021.9mb 51f 51f
8:54 11 14 mph 1021.9mb 51f 51f
8:48 11 14 mph 1021.9mb 51f 51f
8:36 10 15 mph 1021.9mb 51f 51f
8:30 10 14 mph 1021.9mb 51f 51f
8:24 11 15 mph 1021.9mb 51f 51f
8:18 10 14 mph 1021.9mb 51f 51f
8:12 8 13 mph 1021.8mb 51f 51f
8:06 8 10 mph 1021.8mb 51f 51f
8:00 9 11 mph 1021.7mb 51f 51f
7:36 6 7 mph 1021.7mb 51f 51f
7:30 7 9 mph 1021.7mb 51f 51f
7:24 7 9 mph 1021.7mb 51f 51f
7:18 7 9 mph 1021.6mb 51f 51f
7:12 8 9 mph 1021.6mb 51f 51f
7:06 8 9 mph 1021.5mb 51f 51f
7:00 7 9 mph 1021.5mb 51f 51f
6:54 6 8 mph 1021.5mb 51f 51f
6:48 7 10 mph 1021.5mb 51f 51f
6:36 6 7 mph 1021.4mb 51f 51f
6:30 7 8 mph 1021.4mb 51f 51f
6:24 7 9 mph 1021.4mb 51f 51f
6:18 8 9 mph 1021.4mb 51f 51f
6:12 7 9 mph 1021.4mb 51f 51f
6:06 7 9 mph 1021.4mb 51f 51f
6:00 7 9 mph 1021.4mb 51f 51f
5:54 8 9 mph 1021.4mb 51f 51f
5:48 8 10 mph 1021.3mb 51f 51f
5:36 7 10 mph 1021.3mb 51f 50f
5:30 6 8 mph 1021.3mb 51f 50f
5:24 3 8 mph 1021.3mb 51f 50f
5:18 3 6 mph 1021.2mb 51f 50f
5:12 5 8 mph 1021.2mb 51f 50f
5:06 3 7 mph 1021.2mb 51f 50f
5:00 6 9 mph 1021.2mb 51f 50f
4:54 7 9 mph 1021.2mb 51f 50f
4:48 6 9 mph 1021.2mb 51f 50f
4:36 2 7 mph 1021.3mb 51f 50f
4:30 3 7 mph 1021.3mb 51f 50f
4:24 3 6 mph 1021.2mb 51f 50f
4:18 3 7 mph 1021.3mb 51f 50f
4:12 6 7 mph 1021.4mb 51f 50f
4:06 3 6 mph 1021.4mb 51f 50f
4:00 3 6 mph 1021.4mb 51f 50f
3:54 5 7 mph 1021.5mb 51f 50f
3:48 6 8 mph 1021.5mb 51f 50f
3:36 5 7 mph 1021.5mb 51f 51f
3:30 2 5 mph 1021.5mb 51f 51f
3:24 2 10 mph 1021.5mb 51f 51f
3:18 9 15 mph 1021.5mb 51f 51f
3:12 13 17 mph 1021.4mb 51f 51f
3:06 14 17 mph 1021.3mb 51f 51f
3:00 15 18 mph 1021.3mb 51f 51f
2:54 16 20 mph 1021.3mb 51f 51f
2:48 15 17 mph 1021.3mb 51f 51f
2:36 9 18 mph 1021.1mb 51f 51f
2:30 10 16 mph 1021.1mb 51f 51f
2:24 10 20 mph 1021.1mb 51f 51f
2:18 11 17 mph 1021.1mb 51f 51f
2:12 15 20 mph 1021.2mb 51f 51f
2:06 15 18 mph 1021.2mb 51f 51f
2:00 14 18 mph 1021.2mb 51f 51f
1:54 15 18 mph 1021.2mb 51f 51f
1:48 14 18 mph 1021.3mb 51f 51f
1:36 10 16 mph 1021.2mb 51f 51f
1:30 13 17 mph 1021.2mb 51f 51f
1:24 11 17 mph 1021.2mb 51f 51f
1:18 13 16 mph 1021.2mb 50f 51f
1:12 10 14 mph 1021.2mb 50f 51f
1:06 9 17 mph 1021.1mb 50f 51f
1:00 11 16 mph 1021.2mb 50f 51f
12:54 11 17 mph 1021.2mb 50f 51f
12:48 15 22 mph 1021.2mb 50f 51f
12:36 16 23 mph 1021.3mb 50f 51f
12:30 14 22 mph 1021.3mb 50f 51f
12:24 18 22 mph 1021.4mb 50f 51f
12:18 16 21 mph 1021.3mb 50f 52f
12:12 15 17 mph 1021.4mb 50f 52f
12:06 11 14 mph 1021.4mb 50f 52f
12:00 11 14 mph 1021.4mb 50f 52f
Qua 05/25 11:54 7 11 mph 1021.4mb 50f 52f
11:48 6 9 mph 1021.4mb 50f 52f
11:36 7 10 mph 1021.3mb 50f 52f
11:30 8 11 mph 1021.3mb 50f 52f
11:24 5 8 mph 1021.2mb 50f 52f
11:18 6 9 mph 1021.2mb 50f 52f
11:12 7 10 mph 1021.1mb 50f 52f
11:06 9 11 mph 1021mb 50f 53f
11:00 9 11 mph 1021mb 50f 53f
10:54 8 10 mph 1020.9mb 50f 53f
10:48 10 13 mph 1020.9mb 50f 53f
10:36 10 13 mph 1020.8mb 50f 53f
10:30 10 13 mph 1020.8mb 50f 53f
10:24 10 13 mph 1020.7mb 50f 53f
10:18 9 11 mph 1020.7mb 50f 53f
10:12 10 14 mph 1020.7mb 50f 53f
10:06 9 11 mph 1020.8mb 50f 54f
10:00 8 13 mph 1020.8mb 50f 54f
9:54 10 15 mph 1020.7mb 50f 54f
9:48 10 15 mph 1020.6mb 50f 54f
9:36 9 14 mph 1020.5mb 51f 54f
9:30 11 16 mph 1020.5mb 51f 54f
9:24 13 16 mph 1020.4mb 51f 55f
9:18 13 15 mph 1020.3mb 51f 55f
9:12 11 17 mph 1020.4mb 50f 55f
9:06 13 16 mph 1020.3mb 50f 55f
9:00 14 18 mph 1020.3mb 50f 55f
8:54 14 21 mph 1020.2mb 50f 55f
8:48 14 17 mph 1020.3mb 50f 56f
8:36 11 14 mph 1020.2mb 50f 55f
8:30 11 16 mph 1020.2mb 50f 56f
8:24 11 15 mph 1020.2mb 50f 56f
8:18 10 13 mph 1020.2mb 50f 56f
8:12 13 16 mph 1020.2mb 50f 56f
8:06 11 14 mph 1020.2mb 50f 56f
8:00 10 13 mph 1020.1mb 50f 57f
7:54 10 14 mph 1020.1mb 50f 57f
7:48 11 14 mph 1020.1mb 50f 57f
7:36  -  mph 1020.2mb 50f -
7:30  -  mph 1020.1mb 50f -
7:24  -  mph 1020.1mb 50f -
7:18  -  mph 1020.1mb 50f -
7:12  -  mph 1020mb 50f -
7:06  -  mph 1020mb 50f -
7:00  -  mph 1020.1mb 50f -
6:36  -  mph - 50f 59f
6:30  -  mph - 50f 60f
6:24  -  mph - 50f 59f
6:18  -  mph - 50f 59f
6:12  -  mph - 50f 60f
6:06  -  mph - 50f 59f
6:00  -  mph - 50f 59f
5:54  -  mph - 50f 59f
5:48  -  mph - 50f 60f
5:36 16 18 mph 1020.5mb - 59f
5:30 15 18 mph 1020.5mb - 60f
5:24 13 16 mph 1020.5mb - 60f
5:18 14 16 mph 1020.6mb - 59f
5:12 14 17 mph 1020.7mb - 60f
5:06 13 18 mph 1020.7mb - 59f
5:00 15 20 mph 1020.8mb - 59f
4:54 14 20 mph 1020.9mb - 59f
4:48 14 18 mph 1020.8mb - 59f
4:36 14 17 mph 1020.7mb 51f -
4:30 14 17 mph 1020.8mb 51f -
4:24 13 17 mph 1020.8mb 51f -
4:18 7 13 mph 1020.8mb 52f -
4:12 8 11 mph 1020.9mb 52f -
4:06 9 14 mph 1020.9mb 52f -
4:00 9 14 mph 1020.9mb 52f -
3:54 13 17 mph 1020.9mb 52f -
3:48 14 17 mph 1021mb 52f -
3:36  -  mph 1020.9mb 52f 59f
3:30  -  mph 1021mb 52f 58f
3:24  -  mph 1021.1mb 52f 58f
3:18  -  mph 1021.1mb 52f 58f
3:12  -  mph 1021.1mb 52f 58f
3:06  -  mph 1021.1mb 52f 58f
3:00  -  mph 1021.1mb 52f 58f
2:54  -  mph 1021.2mb 52f 58f
2:48  -  mph 1021.2mb 52f 58f
2:36 8 11 mph 1021.2mb 51f 58f
2:30 7 13 mph 1021.2mb 51f 58f
2:24 7 14 mph 1021.2mb 51f 58f
2:18 8 14 mph 1021.2mb 51f 58f
2:12 10 14 mph 1021.1mb 51f 58f
2:06 7 11 mph 1021.1mb 51f 58f
2:00 8 10 mph 1021.1mb 51f 58f
1:54 6 10 mph 1021.1mb 51f 58f
1:48 7 11 mph 1021.1mb 51f 58f
1:36 6 10 mph 1021.1mb 51f 58f
1:30 6 9 mph 1021mb 51f 58f
1:24 8 10 mph 1021mb 51f 57f
1:18 6 11 mph 1021mb 51f 57f
1:12 7 10 mph 1021mb 51f 57f
1:06 7 11 mph 1021mb 51f 57f
1:00 6 10 mph 1020.9mb 51f 58f
12:54 6 9 mph 1020.8mb 51f 58f
12:48 7 10 mph 1020.7mb 51f 57f
12:36 6 9 mph 1020.6mb 51f 58f
12:30 5 7 mph 1020.6mb 51f 58f
12:24 5 8 mph 1020.6mb 51f 58f
12:18 6 8 mph 1020.6mb 51f 58f
12:12 6 7 mph 1020.6mb 51f 58f
12:06 6 7 mph 1020.6mb 51f 57f
12:00 7 8 mph 1020.5mb 51f 56f
11:54 5
mph
1020.5mb 51f 56f
11:48 5 6 mph 1020.4mb 51f 57f
11:36 1 2 mph 1020.4mb 51f 58f
11:30 2 3 mph 1020.3mb 51f 57f
11:24 3 5 mph 1020.3mb 51f 56f
11:18 2 3 mph 1020.3mb 51f 57f
11:12 2
mph
1020.3mb 51f 56f
11:06 2 5 mph 1020.3mb 51f 56f
11:00 2 5 mph 1020.3mb 51f 55f
10:54 2 3 mph 1020.3mb 51f 55f
10:48  -  1 mph 1020.4mb 51f 55f
10:36 1 3 mph 1020.3mb 51f 55f
10:30 2 5 mph 1020.3mb 51f 54f
10:24  -  1 mph 1020.2mb 51f 55f
10:18 2
mph
1020.2mb 51f 54f
10:12 1 3 mph 1020.1mb 51f 55f
10:06 2 5 mph 1020.1mb 51f 55f
10:00 5 6 mph 1020mb 51f 54f
9:54 6
mph
1019.9mb 51f 54f
9:48 6 7 mph 1019.8mb 51f 54f
9:36 6
mph
1019.7mb 51f 53f
9:30 5
mph
1019.7mb 51f 53f
9:24 3 5 mph 1019.7mb 51f 52f
9:18 3 5 mph 1019.7mb 51f 52f
9:12 3
mph
1019.7mb 51f 52f
9:06 3 5 mph 1019.7mb 51f 52f
9:00 2 3 mph 1019.6mb 51f 52f
8:54 2 3 mph 1019.6mb 51f 52f
8:48 2 3 mph 1019.6mb 51f 52f
8:36 3
mph
1019.5mb 51f 51f
8:30 2 3 mph 1019.5mb 51f 51f
8:24 3
mph
1019.5mb 51f 51f
8:18 3 5 mph 1019.5mb 51f 51f
8:12 3 5 mph 1019.4mb 51f 51f
8:06 3
mph
1019.4mb 51f 51f
8:00 3
mph
1019.3mb 51f 51f
7:54  -  2 mph 1019.2mb 51f 52f
7:48 1 2 mph 1019.2mb 51f 51f
7:36  -  mph 1019.1mb 51f -
7:30  -  mph 1019.1mb 51f -
7:24  -  mph 1019mb 51f -
7:18  -  mph 1018.9mb 51f -
7:12  -  mph 1018.9mb 51f -
7:06  -  mph 1018.8mb 51f -
7:00  -  mph 1018.8mb 51f -
6:54  -  mph 1018.7mb 51f -
6:48  -  mph 1018.7mb 51f -
6:36  -  2 mph 1018.6mb 51f 48f
6:30 1 2 mph 1018.6mb 51f 48f
6:24 1 2 mph 1018.5mb 51f 48f
6:18 2
mph
1018.5mb 51f 47f
6:12 2
mph
1018.5mb 51f 48f
6:06  -  1 mph 1018.5mb 51f 48f
6:00  -  1 mph 1018.4mb 51f 48f
5:36 2
mph
1018.2mb 51f 48f
5:30  -  2 mph 1018.2mb 51f 48f
5:24  -  2 mph 1018.1mb 51f 48f
5:18 1 2 mph 1018.1mb 51f 48f
5:12  -  1 mph 1018.1mb 51f 48f
5:06  -  1 mph 1018mb 51f 48f
5:00 1 2 mph 1017.9mb 51f 48f
4:54 1 2 mph 1017.9mb 51f 47f
4:48  -  1 mph 1017.8mb 51f 47f
4:36 1 2 mph 1017.7mb 51f 47f
4:30 2 3 mph 1017.7mb 51f 47f
4:24 2 3 mph 1017.6mb 51f 47f
4:18 2 3 mph 1017.6mb 51f 47f
4:12 2 3 mph 1017.5mb 51f 47f
4:06 2 3 mph 1017.5mb 51f 48f
4:00  -  2 mph 1017.5mb 51f 48f
3:54 1 2 mph 1017.5mb 51f 48f
3:48 2 5 mph 1017.4mb 51f 47f
3:36 2 3 mph 1017.4mb 51f 48f
3:30  -  1 mph 1017.4mb 51f 48f
3:24  -  1 mph 1017.4mb 51f 48f
3:18  -  1 mph 1017.3mb 51f 48f
3:12 1 2 mph 1017.3mb 51f 47f
3:06 2
mph
1017.3mb 51f 47f
3:00 2
mph
1017.2mb 51f 47f
2:54 2
mph
1017.2mb 51f 48f
2:48  -  2 mph 1017.3mb 51f 48f
2:36 1 2 mph 1017.2mb 51f 49f
2:30  -  mph 1017.1mb 51f 49f
2:24  -  1 mph 1017.1mb 51f 48f
2:18  -  1 mph 1017.1mb 51f 48f
2:12 1 2 mph 1017.1mb 51f 48f
2:06  -  1 mph 1017mb 51f 49f
2:00  -  1 mph 1016.9mb 51f 49f
1:54  -  1 mph 1016.9mb 51f 50f
1:48  -  1 mph 1016.9mb 51f 49f
1:36  -  1 mph 1016.8mb 51f 49f
1:30  -  2 mph 1016.8mb 51f 50f
1:24 2
mph
1016.8mb 51f 50f
1:18  -  mph 1016.8mb 51f 50f
1:12  -  1 mph 1016.8mb 51f 51f
1:06  -  1 mph 1016.8mb 51f 51f
1:00  -  2 mph 1016.8mb 51f 51f
12:54 1 2 mph 1016.8mb 51f 51f
12:48 1 2 mph 1016.8mb 51f 51f
12:36 2 3 mph 1016.7mb 51f 51f
12:30 3
mph
1016.6mb 51f 51f
12:24 1 2 mph 1016.7mb 51f 51f
12:18  -  1 mph 1016.7mb 51f 51f
12:12  -  1 mph 1016.6mb 51f 51f
12:06  -  1 mph 1016.6mb 51f 51f
12:00  -  1 mph 1016.6mb 51f 51f
Ter 05/24 11:54  -  2 mph 1016.6mb 51f 51f
11:48 1 2 mph 1016.7mb 51f 51f
11:36  -  2 mph 1016.6mb 51f 51f
11:30  -  1 mph 1016.6mb 51f 51f
11:24 1 2 mph 1016.6mb 51f 51f
11:18  -  1 mph 1016.6mb 51f 51f
11:12  -  1 mph 1016.6mb 51f 51f
11:06  -  2 mph 1016.6mb 51f 51f
11:00 1 2 mph 1016.5mb 51f 51f
10:54 2 3 mph 1016.5mb 51f 51f
10:48 2 3 mph 1016.5mb 51f 51f
10:36 2 3 mph 1016.5mb 51f -
10:30 2 3 mph 1016.5mb 51f -
10:24 3 5 mph 1016.5mb 51f -
10:18 3 6 mph 1016.5mb 51f -
10:12 5 6 mph 1016.5mb 51f -
10:06 2 5 mph 1016.5mb 51f -
10:00 1 3 mph 1016.4mb 51f -
9:54 1 2 mph 1016.4mb 51f -
9:48 2 5 mph 1016.4mb 51f -
9:36 3 6 mph 1016.3mb 51f 51f
9:30 5 6 mph 1016.2mb 51f 51f
9:24 2 5 mph 1016.1mb 51f 52f
9:18 1 3 mph 1016.1mb 51f 52f
9:12  -  1 mph 1016mb 51f 52f
9:06 2 5 mph 1016mb 51f 52f
9:00 5
mph
1015.9mb 51f 53f
8:54 2 6 mph 1015.9mb 51f 55f
8:48 6 7 mph 1015.9mb 51f 55f
8:36 6 8 mph 1015.8mb 51f 56f
8:30 6 8 mph 1015.7mb 51f 56f
8:24 7 8 mph 1015.7mb 51f 56f
8:18 8 9 mph 1015.7mb 51f 56f
8:12 9 10 mph 1015.7mb 51f 56f
8:06 8 9 mph 1015.7mb 51f 57f
8:00 7 8 mph 1015.7mb 51f 57f
7:54 7 10 mph 1015.7mb 51f 57f
7:48 10 13 mph 1015.6mb 51f 58f
7:36  -  mph 1015.6mb 51f 58f
7:30  -  mph 1015.6mb 51f 59f
7:24  -  mph 1015.6mb 51f 59f
7:18  -  mph 1015.6mb 51f 60f
7:12  -  mph 1015.7mb 51f 59f
7:06  -  mph 1015.7mb 51f 59f
7:00  -  mph 1015.7mb 51f 60f
6:54  -  mph 1015.6mb 51f 60f
6:48  -  mph 1015.6mb 51f 60f
6:36 8 10 mph 1015.7mb 51f 60f
6:30 7 9 mph 1015.7mb 51f 60f
6:24 8 10 mph 1015.7mb 51f 60f
6:18 8 10 mph 1015.8mb 51f 60f
6:12 8 10 mph 1015.8mb 50f 59f
6:06 8 10 mph 1015.8mb 50f 60f
6:00 7 9 mph 1015.8mb 50f 59f
5:54 6 9 mph 1015.8mb 50f 60f
5:48 6 9 mph 1015.8mb 50f 60f
5:36  -  mph 1015.9mb 51f 59f
5:30  -  mph 1016mb 51f 59f
5:24  -  mph 1016mb 51f 59f
5:18  -  mph 1016mb 51f 59f
5:12  -  mph 1016mb 51f 59f
5:06  -  mph 1016mb 51f 59f
5:00  -  mph 1016.1mb 51f 59f
4:54  -  mph 1016.1mb 51f 59f
4:48  -  mph 1016mb 51f 59f
4:36  -  mph 1016mb 51f 59f
4:30  -  mph 1016mb 51f 58f
4:24  -  mph 1016mb 51f 58f
4:18  -  mph 1016mb 51f 58f